Time;durP1;ratioP1;P1;durP2;ratioP2;P2;SDS_P1;SDS_P2;PMS_P1;PMS_P2;Temp;Humidity;BMP_temperature;BMP_pressure;BME280_temperature;BME280_humidity;BME280_pressure;Samples;Min_cycle;Max_cycle;Signal;HPM_P1;HPM_P2
2021/09/28 00:01:56;;;;;;;0.53;0.50;;;15.40;99.90;;;;;;4975755;28;20180;-65
2021/09/28 00:04:22;;;;;;;0.40;0.30;;;15.20;99.90;;;;;;4976384;28;20186;-62
2021/09/28 00:06:47;;;;;;;0.40;0.20;;;15.20;99.90;;;;;;4975740;28;20176;-65
2021/09/28 00:09:13;;;;;;;0.40;0.30;;;15.20;99.90;;;;;;4976271;28;20668;-62
2021/09/28 00:11:38;;;;;;;0.40;0.20;;;15.10;99.90;;;;;;4976633;28;20255;-63
2021/09/28 00:14:04;;;;;;;0.97;0.97;;;15.00;99.90;;;;;;4976161;28;20191;-64
2021/09/28 00:16:30;;;;;;;0.33;0.33;;;15.10;99.90;;;;;;4976036;28;20198;-63
2021/09/28 00:18:58;;;;;;;1.00;0.40;;;15.10;99.90;;;;;;4976479;28;20194;-62
2021/09/28 00:21:24;;;;;;;0.30;0.10;;;15.00;99.90;;;;;;4976823;28;20184;-63
2021/09/28 00:23:50;;;;;;;0.30;0.10;;;14.90;99.90;;;;;;4975413;28;20187;-63
2021/09/28 00:26:15;;;;;;;0.40;0.20;;;14.90;99.90;;;;;;4975063;28;20436;-63
2021/09/28 00:28:41;;;;;;;0.47;0.47;;;15.00;99.90;;;;;;4975520;28;20183;-63
2021/09/28 00:31:07;;;;;;;0.30;0.20;;;15.00;99.90;;;;;;4975976;28;20183;-64
2021/09/28 00:33:35;;;;;;;0.30;0.20;;;15.10;99.90;;;;;;4974938;28;20434;-63
2021/09/28 00:36:01;;;;;;;0.30;0.20;;;15.00;99.90;;;;;;4976035;28;20192;-63
2021/09/28 00:38:26;;;;;;;0.97;0.97;;;15.00;99.90;;;;;;4975994;28;20176;-64
2021/09/28 00:40:52;;;;;;;0.37;0.20;;;14.90;99.90;;;;;;4975623;28;20294;-62
2021/09/28 00:43:18;;;;;;;0.40;0.20;;;14.90;99.90;;;;;;4975504;28;20270;-63
2021/09/28 00:45:43;;;;;;;0.50;0.30;;;14.90;99.90;;;;;;4975482;28;20175;-62
2021/09/28 00:48:09;;;;;;;0.30;0.20;;;14.80;99.90;;;;;;4974929;28;20199;-62
2021/09/28 00:50:35;;;;;;;0.30;0.20;;;14.80;99.90;;;;;;4975224;28;20191;-62
2021/09/28 00:53:03;;;;;;;0.40;0.30;;;14.80;99.90;;;;;;4975240;28;20438;-63
2021/09/28 00:55:30;;;;;;;0.30;0.20;;;14.80;99.90;;;;;;4974901;28;20183;-65
2021/09/28 00:57:57;;;;;;;0.40;0.28;;;14.80;99.90;;;;;;4974766;28;20183;-62
2021/09/28 01:00:23;;;;;;;1.35;1.25;;;14.80;99.90;;;;;;4973755;28;20583;-63
2021/09/28 01:02:51;;;;;;;0.30;0.20;;;14.70;99.90;;;;;;4975152;28;20184;-64
2021/09/28 01:05:16;;;;;;;0.30;0.20;;;14.60;99.90;;;;;;4974852;28;20191;-63
2021/09/28 01:07:42;;;;;;;0.30;0.20;;;14.70;99.90;;;;;;4974928;28;20180;-63
2021/09/28 01:10:08;;;;;;;0.30;0.20;;;14.70;99.90;;;;;;4974823;28;20191;-63
2021/09/28 01:12:34;;;;;;;0.40;0.20;;;14.70;99.90;;;;;;4974012;28;20187;-62
2021/09/28 01:14:59;;;;;;;0.80;0.57;;;14.60;99.90;;;;;;4975237;28;20195;-62
2021/09/28 01:17:25;;;;;;;0.50;0.50;;;14.50;99.90;;;;;;4975210;28;20195;-62
2021/09/28 01:19:50;;;;;;;0.30;0.20;;;14.50;99.90;;;;;;4975237;28;20315;-65
2021/09/28 01:22:17;;;;;;;0.57;0.53;;;14.40;99.90;;;;;;4975382;28;20184;-61
2021/09/28 01:24:46;;;;;;;0.30;0.20;;;14.40;99.90;;;;;;4975859;28;20176;-63
2021/09/28 01:27:12;;;;;;;1.13;0.82;;;14.30;99.90;;;;;;4976706;28;20340;-63
2021/09/28 01:29:38;;;;;;;0.40;0.20;;;14.40;99.90;;;;;;4974700;28;20210;-63
2021/09/28 01:32:05;;;;;;;0.30;0.20;;;14.40;99.90;;;;;;4974707;28;20242;-63
2021/09/28 01:34:30;;;;;;;0.30;0.20;;;14.40;99.90;;;;;;4974432;28;20183;-62
2021/09/28 01:36:56;;;;;;;0.60;0.60;;;14.40;99.90;;;;;;4974592;28;20646;-65
2021/09/28 01:39:22;;;;;;;5.30;2.00;;;14.50;99.90;;;;;;4976018;28;20719;-65
2021/09/28 01:41:49;;;;;;;0.30;0.20;;;14.50;99.90;;;;;;4978356;28;20223;-65
2021/09/28 01:44:16;;;;;;;0.30;0.20;;;14.60;99.90;;;;;;4978334;28;20266;-65
2021/09/28 01:46:45;;;;;;;0.30;0.20;;;14.60;99.90;;;;;;4977883;28;20184;-65
2021/09/28 01:49:12;;;;;;;0.30;0.20;;;14.50;99.90;;;;;;4977817;28;20290;-65
2021/09/28 01:51:39;;;;;;;0.30;0.20;;;14.60;99.90;;;;;;4978220;28;20191;-65
2021/09/28 01:54:05;;;;;;;0.30;0.15;;;14.70;99.90;;;;;;4978137;28;20176;-65
2021/09/28 01:56:31;;;;;;;0.30;0.10;;;14.60;99.90;;;;;;4979683;28;20186;-65
2021/09/28 01:58:58;;;;;;;0.30;0.20;;;14.50;99.90;;;;;;4978945;28;20247;-65
2021/09/28 02:01:24;;;;;;;0.30;0.20;;;14.40;99.90;;;;;;4978896;28;20188;-65
2021/09/28 02:03:50;;;;;;;0.30;0.10;;;14.50;99.90;;;;;;4978544;28;20183;-65
2021/09/28 02:06:21;;;;;;;0.30;0.20;;;14.40;99.90;;;;;;4978144;28;20581;-65
2021/09/28 02:08:48;;;;;;;0.40;0.30;;;14.40;99.90;;;;;;4977793;28;20263;-65
2021/09/28 02:11:14;;;;;;;0.30;0.20;;;14.50;99.90;;;;;;4977964;28;20628;-65
2021/09/28 02:13:40;;;;;;;0.30;0.10;;;14.40;99.90;;;;;;4977775;28;20197;-66
2021/09/28 02:16:07;;;;;;;0.40;0.40;;;14.30;99.90;;;;;;4977995;28;20179;-65
2021/09/28 02:18:32;;;;;;;0.30;0.20;;;14.20;99.90;;;;;;4977815;28;20274;-65
2021/09/28 02:20:58;;;;;;;0.30;0.20;;;14.20;99.90;;;;;;4977576;28;20298;-65
2021/09/28 02:23:23;;;;;;;0.30;0.20;;;14.20;99.90;;;;;;4977575;28;20195;-65
2021/09/28 02:25:49;;;;;;;0.30;0.20;;;14.30;99.90;;;;;;4977946;28;20179;-64
2021/09/28 02:28:15;;;;;;;0.30;0.20;;;14.20;99.90;;;;;;4976573;28;20218;-63
2021/09/28 02:30:41;;;;;;;0.30;0.10;;;14.10;99.90;;;;;;4977998;28;20208;-63
2021/09/28 02:33:06;;;;;;;0.30;0.20;;;14.20;99.90;;;;;;4983227;28;20594;-63
2021/09/28 02:35:32;;;;;;;0.30;0.20;;;14.10;99.90;;;;;;4983220;28;20430;-63
2021/09/28 02:37:59;;;;;;;0.80;0.73;;;14.20;99.90;;;;;;4977152;28;20184;-63
2021/09/28 02:40:25;;;;;;;0.30;0.20;;;14.20;99.90;;;;;;4976892;28;20490;-63
2021/09/28 02:42:52;;;;;;;0.30;0.20;;;14.20;99.90;;;;;;4976893;28;20673;-63
2021/09/28 02:45:18;;;;;;;0.30;0.10;;;14.20;99.90;;;;;;4976959;28;20175;-63
2021/09/28 02:47:44;;;;;;;0.30;0.10;;;14.10;99.90;;;;;;4975918;28;20180;-63
2021/09/28 02:50:10;;;;;;;0.30;0.20;;;14.10;99.90;;;;;;4976558;28;20204;-63
2021/09/28 02:52:36;;;;;;;0.30;0.20;;;14.00;99.90;;;;;;4976678;28;20187;-63
2021/09/28 02:55:02;;;;;;;0.30;0.20;;;14.00;99.90;;;;;;4976840;28;20180;-63
2021/09/28 02:57:28;;;;;;;0.30;0.10;;;14.00;99.90;;;;;;4975810;28;20216;-64
2021/09/28 02:59:53;;;;;;;0.30;0.10;;;14.10;99.90;;;;;;4976495;28;20253;-64
2021/09/28 03:02:19;;;;;;;0.30;0.20;;;14.00;99.90;;;;;;4976605;28;20206;-64
2021/09/28 03:04:44;;;;;;;0.30;0.20;;;14.00;99.90;;;;;;4977005;28;20184;-62
2021/09/28 03:07:10;;;;;;;0.30;0.20;;;14.10;99.90;;;;;;4976826;28;20513;-64
2021/09/28 03:09:35;;;;;;;0.30;0.20;;;14.10;99.90;;;;;;4976330;28;20201;-64
2021/09/28 03:12:02;;;;;;;0.30;0.10;;;14.10;99.90;;;;;;4976375;28;20191;-63
2021/09/28 03:14:28;;;;;;;0.30;0.17;;;14.00;99.90;;;;;;4976507;28;20179;-65
2021/09/28 03:16:53;;;;;;;0.30;0.20;;;14.10;99.90;;;;;;4976235;28;20184;-65
2021/09/28 03:19:20;;;;;;;0.30;0.20;;;14.10;99.90;;;;;;4976059;28;20203;-65
2021/09/28 03:21:46;;;;;;;0.30;0.20;;;14.20;99.90;;;;;;4976140;28;20190;-64
2021/09/28 03:24:12;;;;;;;0.30;0.17;;;14.00;99.90;;;;;;4976120;28;20262;-63
2021/09/28 03:26:38;;;;;;;0.40;0.27;;;13.90;99.90;;;;;;4975931;28;20299;-62
2021/09/28 03:29:04;;;;;;;0.30;0.20;;;13.90;99.90;;;;;;4976377;28;20205;-62
2021/09/28 03:31:29;;;;;;;0.30;0.20;;;13.80;99.90;;;;;;4976433;28;20204;-65
2021/09/28 03:33:55;;;;;;;0.30;0.20;;;13.80;99.90;;;;;;4976384;28;20246;-63
2021/09/28 03:36:21;;;;;;;0.30;0.20;;;13.80;99.90;;;;;;4975856;28;20465;-63
2021/09/28 03:38:46;;;;;;;0.30;0.20;;;13.80;99.90;;;;;;4975902;28;20176;-63
2021/09/28 03:41:12;;;;;;;0.30;0.20;;;13.80;99.90;;;;;;4975864;28;20219;-64
2021/09/28 03:43:37;;;;;;;0.30;0.20;;;13.80;99.90;;;;;;4976132;28;20569;-63
2021/09/28 03:46:03;;;;;;;0.30;0.20;;;13.80;99.90;;;;;;4976162;28;20678;-65
2021/09/28 03:48:28;;;;;;;0.30;0.20;;;13.80;99.90;;;;;;4975814;28;20176;-63
2021/09/28 03:50:54;;;;;;;0.30;0.10;;;13.80;99.90;;;;;;4976287;28;20195;-65
2021/09/28 03:53:20;;;;;;;0.30;0.20;;;13.70;99.90;;;;;;4976373;28;20245;-65
2021/09/28 03:55:45;;;;;;;0.30;0.20;;;13.70;99.90;;;;;;4976077;28;20226;-64
2021/09/28 03:58:12;;;;;;;0.40;0.30;;;13.70;99.90;;;;;;4976030;28;20289;-63
2021/09/28 04:00:38;;;;;;;0.30;0.20;;;13.70;99.90;;;;;;4974729;28;20222;-65
2021/09/28 04:03:05;;;;;;;0.30;0.20;;;13.70;99.90;;;;;;4974920;28;20208;-63
2021/09/28 04:05:31;;;;;;;0.30;0.10;;;13.70;99.90;;;;;;4975921;28;20250;-63
2021/09/28 04:07:56;;;;;;;0.30;0.20;;;13.70;99.90;;;;;;4975702;28;20552;-63
2021/09/28 04:10:22;;;;;;;0.30;0.10;;;13.60;99.90;;;;;;4974471;28;20449;-63
2021/09/28 04:12:47;;;;;;;0.30;0.10;;;13.60;99.90;;;;;;4975489;28;20213;-61
2021/09/28 04:15:14;;;;;;;0.30;0.27;;;13.50;99.90;;;;;;4977190;28;20270;-63
2021/09/28 04:17:40;;;;;;;0.60;0.45;;;13.60;99.90;;;;;;4976557;28;20423;-62
2021/09/28 04:20:06;;;;;;;0.30;0.10;;;13.60;99.90;;;;;;4976328;28;20234;-64
2021/09/28 04:22:32;;;;;;;0.63;0.63;;;13.60;99.90;;;;;;4976872;28;20250;-62
2021/09/28 04:24:58;;;;;;;0.30;0.20;;;13.70;99.90;;;;;;4976307;28;20175;-63
2021/09/28 04:27:24;;;;;;;0.30;0.20;;;13.60;99.90;;;;;;4975420;28;20423;-64
2021/09/28 04:29:49;;;;;;;0.30;0.20;;;13.60;99.90;;;;;;4975468;28;20736;-64
2021/09/28 04:32:15;;;;;;;0.30;0.10;;;13.50;99.90;;;;;;4975017;28;20486;-64
2021/09/28 04:34:40;;;;;;;0.30;0.20;;;13.50;99.90;;;;;;4975087;28;20184;-65
2021/09/28 04:37:06;;;;;;;0.30;0.20;;;13.30;99.90;;;;;;4974809;28;20270;-65
2021/09/28 04:39:32;;;;;;;0.30;0.10;;;13.30;99.90;;;;;;4974841;28;20222;-63
2021/09/28 04:41:57;;;;;;;0.30;0.10;;;13.40;99.90;;;;;;4975040;28;20182;-63
2021/09/28 04:44:23;;;;;;;0.63;0.30;;;13.40;99.90;;;;;;4974986;28;20187;-63
2021/09/28 04:46:49;;;;;;;0.30;0.20;;;13.30;99.90;;;;;;4975459;28;20597;-63
2021/09/28 04:49:14;;;;;;;0.30;0.10;;;13.40;99.90;;;;;;4974635;28;20210;-63
2021/09/28 04:51:40;;;;;;;0.30;0.13;;;13.30;99.90;;;;;;4975376;28;20207;-63
2021/09/28 04:54:05;;;;;;;0.30;0.10;;;13.30;99.90;;;;;;4975322;28;20184;-64
2021/09/28 04:56:31;;;;;;;0.30;0.20;;;13.20;99.90;;;;;;4974822;28;20254;-64
2021/09/28 04:58:57;;;;;;;0.30;0.20;;;13.10;99.90;;;;;;4974832;28;20210;-64
2021/09/28 05:01:22;;;;;;;0.40;0.40;;;13.20;99.90;;;;;;4974965;28;20211;-64
2021/09/28 05:03:48;;;;;;;0.60;0.50;;;13.00;99.90;;;;;;4975269;28;20493;-64
2021/09/28 05:06:14;;;;;;;0.30;0.10;;;13.10;99.90;;;;;;4974312;28;20242;-64
2021/09/28 05:08:40;;;;;;;0.30;0.20;;;13.10;99.90;;;;;;4974202;28;20194;-64
2021/09/28 05:11:12;;;;;;;0.30;0.20;;;13.00;99.90;;;;;;4975396;28;20605;-64
2021/09/28 05:13:41;;;;;;;0.30;0.20;;;13.10;99.90;;;;;;4975745;28;20176;-64
2021/09/28 05:16:07;;;;;;;0.30;0.10;;;13.10;99.90;;;;;;4979045;28;20528;-64
2021/09/28 05:18:33;;;;;;;0.30;0.10;;;13.00;99.90;;;;;;4978765;28;20184;-64
2021/09/28 05:21:00;;;;;;;0.30;0.10;;;13.10;99.90;;;;;;4982944;28;20207;-64
2021/09/28 05:23:26;;;;;;;1.20;1.20;;;13.20;99.90;;;;;;4987199;28;20438;-64
2021/09/28 05:25:52;;;;;;;0.30;0.10;;;13.20;99.90;;;;;;4988827;28;20205;-64
2021/09/28 05:28:17;;;;;;;0.30;0.20;;;13.40;99.90;;;;;;4986960;28;20430;-64
2021/09/28 05:30:44;;;;;;;0.30;0.20;;;13.20;99.90;;;;;;4987265;28;20195;-65
2021/09/28 05:33:10;;;;;;;0.30;0.17;;;13.30;99.90;;;;;;4980736;28;20270;-64
2021/09/28 05:35:37;;;;;;;0.30;0.20;;;13.40;99.90;;;;;;4986438;28;20187;-66
2021/09/28 05:38:02;;;;;;;0.30;0.20;;;13.50;99.90;;;;;;4987670;28;20191;-65
2021/09/28 05:40:28;;;;;;;0.30;0.10;;;13.60;99.90;;;;;;4987732;28;20360;-65
2021/09/28 05:42:53;;;;;;;0.30;0.20;;;13.50;99.90;;;;;;4986008;28;20620;-65
2021/09/28 05:45:19;;;;;;;0.30;0.10;;;13.60;99.90;;;;;;4987422;28;20611;-65
2021/09/28 05:47:47;;;;;;;0.30;0.20;;;13.50;99.90;;;;;;4990353;28;20616;-66
2021/09/28 05:50:12;;;;;;;0.30;0.20;;;13.50;99.90;;;;;;4988738;28;20206;-65
2021/09/28 05:52:38;;;;;;;0.40;0.30;;;13.70;99.90;;;;;;4999422;28;20191;-63
2021/09/28 05:55:04;;;;;;;0.30;0.20;;;13.70;99.90;;;;;;4983364;28;20183;-63
2021/09/28 05:57:30;;;;;;;0.30;0.20;;;13.70;99.90;;;;;;4989395;28;20193;-63
2021/09/28 05:59:55;;;;;;;0.30;0.10;;;13.80;99.90;;;;;;4997725;28;20210;-67
2021/09/28 06:02:21;;;;;;;0.30;0.20;;;13.80;99.90;;;;;;4995844;28;20186;-64
2021/09/28 06:04:47;;;;;;;0.30;0.20;;;13.90;99.90;;;;;;5000191;28;20174;-67
2021/09/28 06:07:14;;;;;;;0.30;0.20;;;14.00;99.90;;;;;;4997619;28;20273;-66
2021/09/28 06:09:41;;;;;;;0.30;0.20;;;14.10;99.90;;;;;;4997680;28;20497;-66
2021/09/28 06:12:09;;;;;;;0.30;0.22;;;14.30;99.90;;;;;;4998446;28;20187;-66
2021/09/28 06:14:36;;;;;;;0.30;0.20;;;14.60;99.90;;;;;;5012621;28;20178;-66
2021/09/28 06:17:02;;;;;;;0.30;0.10;;;15.50;99.90;;;;;;5017814;28;20178;-67
2021/09/28 06:19:28;;;;;;;0.30;0.10;;;16.30;99.90;;;;;;5017907;28;20194;-66
2021/09/28 06:21:55;;;;;;;0.30;0.20;;;16.50;99.90;;;;;;4997899;28;20645;-66
2021/09/28 06:24:21;;;;;;;0.30;0.20;;;16.40;99.90;;;;;;4976740;28;20176;-67
2021/09/28 06:26:47;;;;;;;0.30;0.10;;;15.90;99.90;;;;;;4986312;28;20183;-66
2021/09/28 06:29:13;;;;;;;0.30;0.20;;;15.60;99.90;;;;;;4979135;28;20180;-66
2021/09/28 06:31:38;;;;;;;0.30;0.20;;;15.50;99.90;;;;;;4993669;28;20263;-66
2021/09/28 06:34:04;;;;;;;0.30;0.20;;;15.40;99.90;;;;;;4998648;28;20175;-66
2021/09/28 06:36:29;;;;;;;0.30;0.20;;;15.40;99.90;;;;;;4998744;28;20190;-63
2021/09/28 06:38:55;;;;;;;0.30;0.10;;;15.50;99.90;;;;;;4994427;28;20483;-67
2021/09/28 06:41:21;;;;;;;0.30;0.20;;;15.80;99.90;;;;;;4979306;28;20215;-64
2021/09/28 06:43:48;;;;;;;0.30;0.10;;;16.20;99.90;;;;;;4979074;28;20266;-64
2021/09/28 06:46:13;;;;;;;0.30;0.20;;;16.30;96.50;;;;;;4991921;28;20438;-67
2021/09/28 06:48:39;;;;;;;0.30;0.20;;;16.30;62.40;;;;;;4999170;28;20317;-67
2021/09/28 06:51:04;;;;;;;0.30;0.20;;;16.30;74.00;;;;;;4997930;28;20281;-66
2021/09/28 06:53:30;;;;;;;0.30;0.10;;;16.10;42.30;;;;;;4997652;28;20190;-66
2021/09/28 06:55:56;;;;;;;0.30;0.20;;;16.10;91.40;;;;;;4993554;28;20227;-66
2021/09/28 06:58:21;;;;;;;0.30;0.10;;;16.00;84.20;;;;;;4978530;28;20195;-67
2021/09/28 07:00:47;;;;;;;0.40;0.10;;;16.10;99.90;;;;;;4979161;28;20226;-65
2021/09/28 07:03:13;;;;;;;0.30;0.20;;;15.90;99.90;;;;;;4977686;28;20187;-66
2021/09/28 07:05:38;;;;;;;0.30;0.10;;;15.80;99.90;;;;;;4990987;28;20183;-66
2021/09/28 07:08:04;;;;;;;0.30;0.20;;;15.80;99.90;;;;;;4999086;28;20181;-67
2021/09/28 07:10:30;;;;;;;0.30;0.20;;;15.70;99.90;;;;;;4997319;28;20590;-64
2021/09/28 07:12:56;;;;;;;0.30;0.20;;;15.60;99.90;;;;;;4996423;28;20191;-62
2021/09/28 07:15:22;;;;;;;0.30;0.17;;;15.60;99.90;;;;;;4996488;28;20179;-68
2021/09/28 07:17:47;;;;;;;0.30;0.20;;;15.60;99.90;;;;;;4996776;28;20713;-66
2021/09/28 07:20:13;;;;;;;0.30;0.10;;;15.60;99.90;;;;;;4997554;28;20701;-66
2021/09/28 07:22:39;;;;;;;0.30;0.13;;;15.60;99.90;;;;;;4999706;28;20305;-66
2021/09/28 07:25:05;;;;;;;0.30;0.20;;;15.70;99.90;;;;;;4997742;28;20233;-68
2021/09/28 07:27:30;;;;;;;0.30;0.20;;;15.80;99.90;;;;;;4996501;28;20213;-68
2021/09/28 07:29:56;;;;;;;0.30;0.20;;;15.90;99.90;;;;;;4992826;28;20450;-67
2021/09/28 07:32:23;;;;;;;0.30;0.20;;;15.90;99.90;;;;;;4976575;28;20186;-66
2021/09/28 07:34:48;;;;;;;0.30;0.20;;;16.00;99.90;;;;;;4976523;28;20266;-67
2021/09/28 07:37:15;;;;;;;0.50;0.40;;;16.20;99.90;;;;;;4975246;28;20225;-68
2021/09/28 07:39:40;;;;;;;0.30;0.20;;;16.20;53.40;;;;;;4975748;28;20498;-64
2021/09/28 07:42:06;;;;;;;0.30;0.20;;;16.30;24.80;;;;;;4976646;28;20673;-67
2021/09/28 07:44:32;;;;;;;0.30;0.20;;;16.50;1.00;;;;;;4976194;28;20184;-68
2021/09/28 07:46:58;;;;;;;0.40;0.17;;;16.60;1.00;;;;;;4976382;28;20187;-68
2021/09/28 07:49:25;;;;;;;0.38;0.20;;;16.80;1.00;;;;;;4975835;28;20246;-65
2021/09/28 07:51:51;;;;;;;0.40;0.20;;;16.90;1.00;;;;;;4975937;28;20623;-65
2021/09/28 07:54:17;;;;;;;0.40;0.20;;;17.00;1.00;;;;;;4976469;28;20191;-65
2021/09/28 07:56:43;;;;;;;0.40;0.20;;;17.00;1.00;;;;;;4977674;28;20487;-64
2021/09/28 07:59:10;;;;;;;0.40;0.20;;;17.10;1.00;;;;;;4975609;28;20316;-64
2021/09/28 08:01:36;;;;;;;1.48;1.38;;;17.40;1.00;;;;;;4975884;28;20490;-64
2021/09/28 08:04:03;;;;;;;0.40;0.20;;;17.50;1.00;;;;;;4975971;28;20207;-67
2021/09/28 08:06:29;;;;;;;0.40;0.10;;;17.70;1.00;;;;;;4995465;28;20923;-70
2021/09/28 08:08:55;;;;;;;0.40;0.20;;;18.00;1.00;;;;;;4995246;28;20425;-67
2021/09/28 08:11:21;;;;;;;0.40;0.20;;;18.10;99.90;;;;;;4995893;28;20744;-69
2021/09/28 08:13:47;;;;;;;0.50;0.30;;;18.10;99.90;;;;;;4994500;28;20189;-70
2021/09/28 08:16:13;;;;;;;0.40;0.20;;;18.00;99.90;;;;;;4995333;28;20434;-68
2021/09/28 08:18:38;;;;;;;0.40;0.20;;;17.80;81.40;;;;;;4995101;28;20194;-68
2021/09/28 08:21:04;;;;;;;0.40;0.20;;;18.00;93.70;;;;;;4994953;28;20453;-67
2021/09/28 08:23:30;;;;;;;0.40;0.20;;;18.10;99.90;;;;;;4995143;28;20233;-65
2021/09/28 08:31:08;;;;;;;0.40;0.20;;;18.10;1.00;;;;;;4982455;28;20250;-69
2021/09/28 08:33:35;;;;;;;0.40;0.10;;;17.70;1.00;;;;;;4978132;28;20789;-68
2021/09/28 08:36:01;;;;;;;0.40;0.20;;;17.80;99.90;;;;;;4975466;28;20435;-68
2021/09/28 08:38:30;;;;;;;0.40;0.30;;;17.60;1.00;;;;;;4975050;28;20927;-68
2021/09/28 08:40:58;;;;;;;0.40;0.20;;;17.50;1.00;;;;;;4975403;28;20510;-68
2021/09/28 08:43:25;;;;;;;0.40;0.20;;;17.70;1.00;;;;;;4975491;28;20423;-65
2021/09/28 08:45:51;;;;;;;0.40;0.20;;;17.80;1.00;;;;;;4975295;28;20452;-66
2021/09/28 08:48:17;;;;;;;0.40;0.20;;;17.80;99.90;;;;;;4974632;28;20437;-67
2021/09/28 08:50:47;;;;;;;0.40;0.20;;;18.00;1.00;;;;;;4975301;28;20206;-71
2021/09/28 08:53:22;;;;;;;0.40;0.20;;;18.10;1.00;;;;;;4975335;28;20510;-68
2021/09/28 08:55:48;;;;;;;0.40;0.10;;;18.40;1.00;;;;;;4974361;28;20433;-66
2021/09/28 08:58:16;;;;;;;0.40;0.10;;;18.50;99.90;;;;;;4985013;28;20434;-66
2021/09/28 09:00:43;;;;;;;0.40;0.20;;;18.50;99.90;;;;;;4977219;28;20235;-68
2021/09/28 09:03:32;;;;;;;0.40;0.10;;;18.60;55.60;;;;;;4994551;28;20437;-66
2021/09/28 09:06:00;;;;;;;0.40;0.20;;;18.60;99.90;;;;;;4994709;28;20422;-65
2021/09/28 09:08:28;;;;;;;0.40;0.13;;;18.50;1.00;;;;;;4994506;28;20430;-65
2021/09/28 09:11:08;;;;;;;0.40;0.10;;;18.50;99.90;;;;;;4993520;28;20434;-67
2021/09/28 09:13:47;;;;;;;0.40;0.10;;;18.60;1.00;;;;;;4994880;28;20473;-68
2021/09/28 09:16:14;;;;;;;0.40;0.20;;;18.60;1.00;;;;;;4975167;28;20476;-66
2021/09/28 09:18:42;;;;;;;0.70;0.50;;;18.50;7.30;;;;;;4988230;28;20964;-68
2021/09/28 09:21:09;;;;;;;0.40;0.20;;;18.50;1.00;;;;;;4994349;28;20958;-68
2021/09/28 09:23:40;;;;;;;0.40;0.20;;;18.70;1.00;;;;;;4992727;28;20461;-68
2021/09/28 09:26:10;;;;;;;0.40;0.20;;;18.90;2.90;;;;;;4995162;28;20428;-70
2021/09/28 09:28:43;;;;;;;0.40;0.20;;;18.70;99.90;;;;;;4995220;28;20480;-68
2021/09/28 09:31:12;;;;;;;0.40;0.20;;;18.90;99.90;;;;;;4987429;28;20492;-69
2021/09/28 09:33:39;;;;;;;0.40;0.17;;;18.90;99.90;;;;;;4996565;28;20513;-69
2021/09/28 09:36:05;;;;;;;0.50;0.30;;;18.50;99.90;;;;;;5013884;28;20518;-66
2021/09/28 09:38:50;;;;;;;0.40;0.10;;;18.50;1.00;;;;;;5013615;28;20791;-72
2021/09/28 09:41:16;;;;;;;0.40;0.20;;;18.60;1.00;;;;;;5013485;28;20543;-69
2021/09/28 09:43:43;;;;;;;0.40;0.20;;;18.60;1.00;;;;;;5013888;28;20956;-70
2021/09/28 09:46:19;;;;;;;0.40;0.20;;;18.70;1.00;;;;;;5013657;28;20513;-62
2021/09/28 09:48:47;;;;;;;0.40;0.20;;;18.80;99.90;;;;;;5013619;28;20902;-62
2021/09/28 09:51:18;;;;;;;0.93;0.50;;;19.10;99.90;;;;;;5013284;28;20445;-64
2021/09/28 09:53:58;;;;;;;0.40;0.20;;;19.30;1.00;;;;;;5012415;28;20898;-64
2021/09/28 09:56:42;;;;;;;0.40;0.20;;;19.50;1.00;;;;;;5013085;28;20443;-63
2021/09/28 09:59:08;;;;;;;0.40;0.20;;;19.60;1.00;;;;;;5012922;28;20420;-62
2021/09/28 10:01:37;;;;;;;0.40;0.10;;;19.40;1.00;;;;;;5016448;28;20478;-65
2021/09/28 10:04:05;;;;;;;0.80;0.20;;;19.30;1.00;;;;;;5016508;28;20253;-64
2021/09/28 10:06:31;;;;;;;0.40;0.20;;;19.20;1.00;;;;;;4992793;28;20919;-64
2021/09/28 10:08:57;;;;;;;0.40;0.20;;;19.00;99.90;;;;;;4996669;28;20461;-64
2021/09/28 10:11:26;;;;;;;0.40;0.20;;;19.20;1.00;;;;;;4997001;28;20197;-64
2021/09/28 10:13:54;;;;;;;0.40;0.10;;;19.40;1.00;;;;;;4996396;28;20174;-64
2021/09/28 10:16:38;;;;;;;0.40;0.20;;;19.40;1.00;;;;;;4996899;28;20438;-61
2021/09/28 10:19:31;;;;;;;0.40;0.10;;;19.40;99.90;;;;;;4996672;28;20452;-61
2021/09/28 10:21:58;;;;;;;0.40;0.10;;;19.40;99.90;;;;;;4986673;28;20530;-62
2021/09/28 10:24:31;;;;;;;0.40;0.20;;;19.60;99.90;;;;;;4996331;28;20430;-62
2021/09/28 10:26:59;;;;;;;0.40;0.13;;;19.60;99.90;;;;;;4996346;28;20458;-62
2021/09/28 10:29:42;;;;;;;0.40;0.20;;;19.60;99.90;;;;;;4996398;28;20426;-67
2021/09/28 10:32:36;;;;;;;1.27;0.50;;;19.70;99.90;;;;;;4976951;28;20434;-67
2021/09/28 10:35:06;;;;;;;0.40;0.20;;;19.50;99.90;;;;;;4977111;28;20431;-69
2021/09/28 10:38:01;;;;;;;0.40;0.20;;;19.50;99.90;;;;;;4976829;28;20427;-65
2021/09/28 10:40:26;;;;;;;0.40;0.20;;;19.90;99.90;;;;;;4976294;28;20465;-70
2021/09/28 10:42:59;;;;;;;0.50;0.47;;;19.80;99.90;;;;;;4977086;28;20420;-68
2021/09/28 10:45:38;;;;;;;0.40;0.20;;;19.70;99.90;;;;;;4976670;28;20267;-69
2021/09/28 10:48:10;;;;;;;0.40;0.20;;;19.60;99.90;;;;;;4976685;28;20437;-64
2021/09/28 10:50:42;;;;;;;0.40;0.10;;;19.90;1.00;;;;;;4976883;28;20513;-63
2021/09/28 10:53:18;;;;;;;0.40;0.20;;;20.00;99.90;;;;;;4976896;28;20446;-66
2021/09/28 10:55:59;;;;;;;0.40;0.17;;;19.90;99.90;;;;;;4975292;28;20516;-66
2021/09/28 10:58:26;;;;;;;0.40;0.20;;;19.80;99.90;;;;;;4981026;28;20436;-63
2021/09/28 11:00:54;;;;;;;0.40;0.20;;;20.10;99.90;;;;;;4981349;28;20474;-72
2021/09/28 11:03:42;;;;;;;0.40;0.20;;;20.10;99.90;;;;;;4995576;28;20496;-67
2021/09/28 11:06:09;;;;;;;0.40;0.20;;;20.40;99.90;;;;;;4995092;28;20422;-69
2021/09/28 11:08:36;;;;;;;0.40;0.20;;;20.10;99.90;;;;;;4995830;28;20426;-67
2021/09/28 11:11:04;;;;;;;0.40;0.10;;;20.10;99.90;;;;;;4995433;28;20448;-67
2021/09/28 11:13:30;;;;;;;0.87;0.50;;;20.10;99.90;;;;;;4995783;28;20434;-67
2021/09/28 11:16:00;;;;;;;0.83;0.50;;;20.40;99.90;;;;;;4995031;28;20496;-67
2021/09/28 11:18:26;;;;;;;0.40;0.20;;;20.10;99.90;;;;;;4995352;28;20476;-64
2021/09/28 11:20:51;;;;;;;0.40;0.20;;;19.70;99.90;;;;;;4995401;28;20827;-65
2021/09/28 11:23:17;;;;;;;0.40;0.20;;;19.90;99.90;;;;;;4995500;28;20418;-64
2021/09/28 11:25:52;;;;;;;0.60;0.30;;;19.60;99.90;;;;;;4996177;28;20249;-64
2021/09/28 11:28:19;;;;;;;0.40;0.10;;;19.50;99.90;;;;;;4994183;28;20230;-64
2021/09/28 11:30:56;;;;;;;0.40;0.20;;;19.40;99.90;;;;;;4985859;28;20434;-66
2021/09/28 11:33:23;;;;;;;0.40;0.20;;;19.40;99.90;;;;;;4976167;28;20490;-64
2021/09/28 11:36:03;;;;;;;0.40;0.10;;;19.20;1.00;;;;;;4982230;28;20915;-65
2021/09/28 11:38:37;;;;;;;0.40;0.20;;;19.30;1.00;;;;;;4995101;28;20430;-65
2021/09/28 11:41:22;;;;;;;0.40;0.20;;;19.30;1.00;;;;;;4994838;28;20468;-67
2021/09/28 11:43:55;;;;;;;0.40;0.30;;;19.60;1.00;;;;;;4995215;28;20438;-64
2021/09/28 11:46:23;;;;;;;0.40;0.20;;;19.60;99.90;;;;;;4994863;28;20418;-64
2021/09/28 11:49:05;;;;;;;0.40;0.20;;;19.30;1.00;;;;;;4994914;28;20430;-66
2021/09/28 11:51:37;;;;;;;0.40;0.20;;;19.50;1.00;;;;;;4995123;28;20484;-65
2021/09/28 11:54:06;;;;;;;0.40;0.20;;;19.30;1.00;;;;;;4995142;28;20430;-65
2021/09/28 11:56:35;;;;;;;0.40;0.20;;;19.60;1.00;;;;;;4994781;28;20422;-65
2021/09/28 11:59:01;;;;;;;0.40;0.20;;;19.70;1.00;;;;;;4994549;28;20496;-66
2021/09/28 12:01:27;;;;;;;0.40;0.20;;;19.70;1.00;;;;;;4994824;28;20506;-66
2021/09/28 12:04:15;;;;;;;0.40;0.20;;;19.80;1.00;;;;;;4994779;28;20437;-65
2021/09/28 12:07:00;;;;;;;0.40;0.20;;;19.80;99.90;;;;;;5014374;28;20420;-67
2021/09/28 12:09:35;;;;;;;0.40;0.20;;;20.00;99.90;;;;;;5011438;28;20447;-67
2021/09/28 12:12:12;;;;;;;0.40;0.20;;;20.50;99.90;;;;;;4993622;28;20810;-65
2021/09/28 12:14:40;;;;;;;0.40;0.20;;;20.90;7.60;;;;;;4994810;28;20497;-65
2021/09/28 12:17:09;;;;;;;0.40;0.20;;;20.70;1.00;;;;;;4993936;28;20509;-65
2021/09/28 12:19:35;;;;;;;0.40;0.20;;;20.80;1.00;;;;;;4994465;28;20476;-65
2021/09/28 12:22:02;;;;;;;0.40;0.20;;;20.60;1.00;;;;;;4989282;28;20445;-64
2021/09/28 12:24:29;;;;;;;0.40;0.20;;;20.60;67.30;;;;;;4991406;28;20746;-66
2021/09/28 12:27:05;;;;;;;0.40;0.20;;;20.60;99.90;;;;;;4990712;28;20438;-66
2021/09/28 12:29:39;;;;;;;0.40;0.20;;;20.90;86.50;;;;;;4994198;28;20449;-69
2021/09/28 12:32:05;;;;;;;0.40;0.20;;;21.30;1.00;;;;;;4994051;28;20898;-69
2021/09/28 12:34:47;;;;;;;0.40;0.20;;;21.20;1.00;;;;;;4994232;28;20484;-70
2021/09/28 12:37:12;;;;;;;0.40;0.20;;;21.10;89.70;;;;;;4994276;28;20422;-73
2021/09/28 12:39:38;;;;;;;0.40;0.20;;;20.90;7.40;;;;;;4979373;28;20454;-64
2021/09/28 12:42:07;;;;;;;0.50;0.20;;;21.20;1.00;;;;;;4974686;28;20188;-69
2021/09/28 12:44:34;;;;;;;0.40;0.20;;;21.40;1.00;;;;;;4973829;28;20175;-68
2021/09/28 12:47:26;;;;;;;0.40;0.20;;;21.50;1.00;;;;;;4974620;28;20889;-71
2021/09/28 12:49:52;;;;;;;0.47;0.20;;;21.30;1.00;;;;;;4975936;28;20447;-67
2021/09/28 12:52:17;;;;;;;0.40;0.20;;;21.40;1.00;;;;;;4976668;28;20474;-67
2021/09/28 12:54:43;;;;;;;0.40;0.20;;;21.10;48.70;;;;;;4974788;28;20427;-67
2021/09/28 12:57:08;;;;;;;0.40;0.20;;;21.10;99.90;;;;;;4991771;28;20643;-67